createdAt,value
2022-12-14T00:01:24.228Z,16.63
2022-12-14T00:03:52.390Z,17.52
2022-12-14T00:06:21.028Z,16.92
2022-12-14T00:08:49.293Z,16.80
2022-12-14T00:11:16.846Z,17.55
2022-12-14T00:13:44.662Z,17.20
2022-12-14T00:16:17.725Z,17.48
2022-12-14T00:18:45.930Z,16.80
2022-12-14T00:21:14.715Z,17.60
2022-12-14T00:23:43.277Z,16.38
2022-12-14T00:26:24.803Z,20.00
2022-12-14T00:28:53.634Z,18.52
2022-12-14T00:31:21.957Z,16.67
2022-12-14T00:33:50.505Z,17.85
2022-12-14T00:36:18.158Z,16.08
2022-12-14T00:38:45.829Z,15.73
2022-12-14T00:41:13.197Z,16.98
2022-12-14T00:43:40.692Z,16.45
2022-12-14T00:46:08.585Z,16.55
2022-12-14T00:48:36.074Z,17.30
2022-12-14T00:51:03.497Z,16.13
2022-12-14T00:53:31.221Z,16.55
2022-12-14T00:55:58.659Z,15.75
2022-12-14T00:58:27.983Z,15.25
2022-12-14T01:00:59.542Z,15.75
2022-12-14T01:03:27.416Z,14.68
2022-12-14T01:05:55.154Z,15.73
2022-12-14T01:08:23.081Z,15.40
2022-12-14T01:10:50.878Z,16.40
2022-12-14T01:13:18.538Z,14.77
2022-12-14T01:15:46.033Z,15.18
2022-12-14T01:18:13.466Z,15.27
2022-12-14T01:20:40.994Z,14.90
2022-12-14T01:23:08.385Z,14.93
2022-12-14T01:25:35.846Z,16.20
2022-12-14T01:28:03.238Z,16.25
2022-12-14T01:30:30.793Z,17.00
2022-12-14T01:32:58.173Z,16.05
2022-12-14T01:35:25.686Z,15.30
2022-12-14T01:37:53.098Z,14.60
2022-12-14T01:40:20.541Z,15.00
2022-12-14T01:42:47.935Z,13.88
2022-12-14T01:45:24.375Z,15.25
2022-12-14T01:47:55.449Z,15.02
2022-12-14T01:50:28.886Z,14.75
2022-12-14T01:52:59.262Z,15.70
2022-12-14T01:55:35.062Z,14.88
2022-12-14T01:58:13.579Z,14.60
2022-12-14T02:00:43.142Z,13.52
2022-12-14T02:03:13.474Z,14.25
2022-12-14T02:05:44.673Z,14.70
2022-12-14T02:08:12.979Z,15.18
2022-12-14T02:10:40.386Z,14.52
2022-12-14T02:13:14.719Z,14.88
2022-12-14T02:15:42.738Z,15.30
2022-12-14T02:18:12.141Z,14.73
2022-12-14T02:20:43.355Z,14.10
2022-12-14T02:23:24.221Z,15.13
2022-12-14T02:26:30.467Z,14.00
2022-12-14T02:29:00.957Z,14.35
2022-12-14T02:31:37.455Z,14.52
2022-12-14T02:34:10.215Z,14.57
2022-12-14T02:36:37.674Z,13.80
2022-12-14T02:39:16.110Z,14.48
2022-12-14T02:41:43.503Z,13.48
2022-12-14T02:44:22.884Z,14.32
2022-12-14T02:47:26.230Z,14.30
2022-12-14T02:50:08.228Z,13.90
2022-12-14T02:52:41.797Z,14.00
2022-12-14T02:55:16.090Z,14.93
2022-12-14T02:57:43.488Z,14.93
2022-12-14T03:00:11.564Z,14.75
2022-12-14T03:02:40.506Z,16.67
2022-12-14T03:05:09.699Z,15.52
2022-12-14T03:07:43.367Z,14.20
2022-12-14T03:10:10.969Z,15.57
2022-12-14T03:12:41.298Z,16.33
2022-12-14T03:15:10.535Z,15.13
2022-12-14T03:17:39.461Z,15.73
2022-12-14T03:20:11.634Z,14.45
2022-12-14T03:22:51.590Z,15.25
2022-12-14T03:25:25.964Z,16.13
2022-12-14T03:28:06.974Z,16.63
2022-12-14T03:30:59.393Z,16.80
2022-12-14T03:33:25.968Z,15.18
2022-12-14T03:35:59.612Z,16.05
2022-12-14T03:38:44.169Z,15.80
2022-12-14T03:41:23.801Z,15.32
2022-12-14T03:43:54.284Z,15.27
2022-12-14T03:46:33.102Z,15.95
2022-12-14T03:49:08.101Z,15.85
2022-12-14T03:51:45.626Z,16.08
2022-12-14T03:54:25.606Z,16.63
2022-12-14T03:56:59.584Z,16.38
2022-12-14T03:59:32.328Z,16.48
2022-12-14T04:02:12.676Z,15.90
2022-12-14T04:04:51.962Z,15.77
2022-12-14T04:07:30.700Z,15.77
2022-12-14T04:09:58.116Z,16.15
2022-12-14T04:12:48.000Z,15.18
2022-12-14T04:15:43.303Z,14.73
2022-12-14T04:18:32.896Z,14.23
2022-12-14T04:21:04.396Z,14.00
2022-12-14T04:24:00.653Z,13.73
2022-12-14T04:29:16.921Z,13.23
2022-12-14T04:31:46.787Z,13.60
2022-12-14T04:34:17.938Z,13.02
2022-12-14T04:36:52.062Z,14.73
2022-12-14T04:39:23.656Z,13.95
2022-12-14T04:41:54.848Z,14.50
2022-12-14T04:44:25.229Z,14.30
2022-12-14T04:46:54.357Z,14.10
2022-12-14T04:49:27.607Z,14.30
2022-12-14T04:52:04.802Z,13.05
2022-12-14T04:54:39.920Z,13.27
2022-12-14T04:57:18.783Z,13.97
2022-12-14T04:59:46.879Z,13.20
2022-12-14T05:02:20.214Z,13.43
2022-12-14T05:04:56.438Z,13.13
2022-12-14T05:07:23.840Z,14.00
2022-12-14T05:10:01.342Z,14.30
2022-12-14T05:12:39.565Z,13.40
2022-12-14T05:15:09.855Z,13.95
2022-12-14T05:17:41.202Z,14.00
2022-12-14T05:20:19.548Z,13.63
2022-12-14T05:22:47.237Z,13.15
2022-12-14T05:25:14.741Z,14.00
2022-12-14T05:27:42.504Z,13.95
2022-12-14T05:30:10.343Z,13.73
2022-12-14T05:32:37.719Z,14.20
2022-12-14T05:35:05.407Z,15.27
2022-12-14T05:37:32.810Z,15.63
2022-12-14T05:40:00.507Z,14.68
2022-12-14T05:42:27.882Z,13.55
2022-12-14T05:44:55.355Z,14.18
2022-12-14T05:47:22.837Z,14.55
2022-12-14T05:49:50.278Z,16.00
2022-12-14T05:52:18.062Z,16.88
2022-12-14T05:54:46.093Z,16.05
2022-12-14T05:57:13.650Z,14.93
2022-12-14T05:59:41.058Z,14.77
2022-12-14T06:02:08.648Z,14.95
2022-12-14T06:04:36.138Z,14.27
2022-12-14T06:07:03.775Z,15.85
2022-12-14T06:09:31.234Z,13.77
2022-12-14T06:11:58.710Z,14.68
2022-12-14T06:14:26.090Z,16.33
2022-12-14T06:16:53.493Z,16.52
2022-12-14T06:19:20.890Z,15.85
2022-12-14T06:21:48.339Z,15.52
2022-12-14T06:24:15.719Z,16.23
2022-12-14T06:26:43.221Z,16.13
2022-12-14T06:29:18.635Z,16.33
2022-12-14T06:34:13.389Z,15.68
2022-12-14T06:36:42.223Z,15.40
2022-12-14T06:39:12.395Z,15.73
2022-12-14T06:41:40.591Z,16.05
2022-12-14T06:44:09.689Z,16.70
2022-12-14T06:46:37.349Z,16.85
2022-12-14T06:49:05.881Z,17.30
2022-12-14T06:51:33.733Z,15.82
2022-12-14T06:54:01.124Z,17.38
2022-12-14T06:56:28.714Z,17.27
2022-12-14T06:58:56.733Z,18.55
2022-12-14T07:01:25.660Z,16.52
2022-12-14T07:03:57.403Z,16.88
2022-12-14T07:06:25.445Z,16.35
2022-12-14T07:08:57.022Z,16.67
2022-12-14T07:11:24.944Z,18.42
2022-12-14T07:13:52.342Z,19.23
2022-12-14T07:16:32.280Z,19.02
2022-12-14T07:19:00.504Z,17.65
2022-12-14T07:21:27.903Z,17.85
2022-12-14T07:23:55.386Z,18.67
2022-12-14T07:26:27.953Z,17.75
2022-12-14T07:28:55.742Z,18.45
2022-12-14T07:31:24.302Z,18.50
2022-12-14T07:33:55.662Z,18.90
2022-12-14T07:36:24.105Z,17.00
2022-12-14T07:38:52.296Z,18.48
2022-12-14T07:41:23.150Z,17.88
2022-12-14T07:43:51.655Z,18.10
2022-12-14T07:46:20.846Z,18.73
2022-12-14T07:48:49.697Z,18.77
2022-12-14T07:51:18.121Z,17.17
2022-12-14T07:53:45.777Z,17.23
2022-12-14T07:56:17.625Z,16.73
2022-12-14T07:58:45.206Z,17.13
2022-12-14T08:01:14.177Z,18.48
2022-12-14T08:03:42.935Z,17.88
2022-12-14T08:06:11.295Z,17.30
2022-12-14T08:08:39.004Z,17.42
2022-12-14T08:11:06.815Z,17.77
2022-12-14T08:13:34.416Z,16.17
2022-12-14T08:16:10.057Z,16.95
2022-12-14T08:18:37.542Z,17.60
2022-12-14T08:21:05.934Z,18.15
2022-12-14T08:23:34.275Z,17.92
2022-12-14T08:26:02.539Z,17.50
2022-12-14T08:28:30.897Z,16.92
2022-12-14T08:30:58.895Z,15.93
2022-12-14T08:33:26.643Z,16.85
2022-12-14T08:35:54.307Z,15.68
2022-12-14T08:38:21.663Z,16.08
2022-12-14T08:40:49.108Z,16.23
2022-12-14T08:43:20.228Z,14.10
2022-12-14T08:45:50.766Z,15.93
2022-12-14T08:48:18.164Z,16.88
2022-12-14T08:50:45.602Z,15.00
2022-12-14T08:53:17.813Z,16.17
2022-12-14T08:55:45.550Z,15.05
2022-12-14T08:58:14.028Z,16.48
2022-12-14T09:00:41.496Z,14.93
2022-12-14T09:03:09.328Z,14.80
2022-12-14T09:05:36.754Z,16.70
2022-12-14T09:08:04.273Z,15.68
2022-12-14T09:10:31.928Z,15.88
2022-12-14T09:12:59.680Z,16.67
2022-12-14T09:15:27.177Z,14.43
2022-12-14T09:17:54.584Z,13.98
2022-12-14T09:20:22.132Z,15.90
2022-12-14T09:22:52.455Z,15.35
2022-12-14T09:25:19.950Z,15.90
2022-12-14T09:27:47.352Z,15.45
2022-12-14T09:30:14.804Z,15.05
2022-12-14T09:32:43.653Z,15.55
2022-12-14T09:35:18.125Z,14.18
2022-12-14T09:37:46.807Z,13.98
2022-12-14T09:40:14.442Z,14.68
2022-12-14T09:42:44.556Z,15.50
2022-12-14T09:45:18.087Z,14.32
2022-12-14T09:47:47.342Z,13.98
2022-12-14T09:50:19.852Z,17.52
2022-12-14T09:52:49.426Z,14.93
2022-12-14T09:55:35.658Z,14.45
2022-12-14T09:58:15.758Z,16.77
2022-12-14T10:00:52.916Z,14.73
2022-12-14T10:03:36.711Z,15.85
2022-12-14T10:06:21.347Z,16.50
2022-12-14T10:09:04.519Z,14.55
2022-12-14T10:11:44.456Z,15.90
2022-12-14T10:14:11.902Z,15.30
2022-12-14T10:16:51.666Z,12.98
2022-12-14T10:19:38.971Z,14.05
2022-12-14T10:22:20.554Z,21.85
2022-12-14T10:24:59.559Z,15.40
2022-12-14T10:27:37.962Z,18.85
2022-12-14T10:30:17.071Z,18.92
2022-12-14T10:32:56.609Z,21.30
2022-12-14T10:35:30.823Z,16.55
2022-12-14T10:38:05.338Z,18.27
2022-12-14T10:40:35.122Z,16.02
2022-12-14T10:43:18.081Z,17.33
2022-12-14T10:45:48.702Z,14.77
2022-12-14T10:48:34.955Z,19.65
2022-12-14T10:51:23.233Z,16.58
2022-12-14T10:53:52.854Z,14.40
2022-12-14T10:56:40.542Z,17.20
2022-12-14T10:59:17.202Z,15.30
2022-12-14T11:01:49.359Z,15.68
2022-12-14T11:04:32.217Z,13.48
2022-12-14T11:07:01.282Z,16.52
2022-12-14T11:09:29.083Z,14.98
2022-12-14T11:12:16.624Z,15.57
2022-12-14T11:14:59.581Z,16.77
2022-12-14T11:17:36.359Z,14.65
2022-12-14T11:20:25.376Z,14.95
2022-12-14T11:22:55.249Z,14.48
2022-12-14T11:25:31.966Z,14.82
2022-12-14T11:28:00.417Z,16.45
2022-12-14T11:30:28.901Z,17.65
2022-12-14T11:32:56.529Z,19.25
2022-12-14T11:35:24.499Z,17.80
2022-12-14T11:37:58.715Z,17.98
2022-12-14T11:40:26.878Z,17.83
2022-12-14T11:43:05.206Z,20.00
2022-12-14T11:45:33.704Z,18.10
2022-12-14T11:48:16.437Z,17.50
2022-12-14T11:50:44.797Z,19.02
2022-12-14T11:53:14.471Z,17.67
2022-12-14T11:55:45.506Z,16.38
2022-12-14T11:58:32.730Z,15.82
2022-12-14T12:01:03.198Z,16.63
2022-12-14T12:03:33.468Z,14.85
2022-12-14T12:06:03.050Z,17.35
2022-12-14T12:08:32.942Z,16.73
2022-12-14T12:11:02.280Z,16.85
2022-12-14T12:13:32.902Z,15.43
2022-12-14T12:16:02.345Z,14.93
2022-12-14T12:18:35.696Z,16.50
2022-12-14T12:21:03.181Z,17.45
2022-12-14T12:23:37.370Z,16.23
2022-12-14T12:26:09.082Z,17.65
2022-12-14T12:28:37.483Z,17.60
2022-12-14T12:31:10.909Z,16.80
2022-12-14T12:33:38.891Z,17.45
2022-12-14T12:36:06.630Z,16.45
2022-12-14T12:38:52.899Z,14.50
2022-12-14T12:41:30.717Z,14.15
2022-12-14T12:44:01.265Z,15.85
2022-12-14T12:46:29.990Z,14.77
2022-12-14T12:49:05.878Z,17.15
2022-12-14T12:51:58.917Z,15.65
2022-12-14T12:54:38.587Z,18.67
2022-12-14T12:57:07.174Z,18.60
2022-12-14T12:59:39.559Z,19.67
2022-12-14T13:02:33.237Z,15.18
2022-12-14T13:05:16.584Z,14.73
2022-12-14T13:07:53.631Z,14.63
2022-12-14T13:10:25.828Z,15.32
2022-12-14T13:12:56.049Z,15.68
2022-12-14T13:15:39.578Z,14.43
2022-12-14T13:18:41.154Z,14.45
2022-12-14T13:21:25.023Z,16.17
2022-12-14T13:23:52.519Z,18.95
2022-12-14T13:26:55.594Z,21.35
2022-12-14T13:29:13.294Z,18.05
2022-12-14T13:31:59.434Z,16.08
2022-12-14T13:34:45.103Z,16.08
2022-12-14T13:37:15.787Z,18.25
2022-12-14T13:40:00.189Z,19.17
2022-12-14T13:42:30.587Z,19.63
2022-12-14T13:45:01.384Z,17.10
2022-12-14T13:47:37.399Z,16.30
2022-12-14T13:50:35.240Z,17.63
2022-12-14T13:52:57.174Z,16.90
2022-12-14T13:55:47.858Z,16.90
2022-12-14T13:58:18.858Z,17.75
2022-12-14T14:00:46.715Z,17.73
2022-12-14T14:03:32.981Z,17.20
2022-12-14T14:06:12.873Z,18.10
2022-12-14T14:08:42.665Z,16.92
2022-12-14T14:11:38.670Z,21.63
2022-12-14T14:14:26.053Z,17.55
2022-12-14T14:16:58.019Z,17.70
2022-12-14T14:19:27.194Z,18.38
2022-12-14T14:24:55.022Z,20.15
2022-12-14T14:27:27.373Z,18.95
2022-12-14T14:29:55.447Z,18.60
2022-12-14T14:32:37.691Z,19.30
2022-12-14T14:35:09.432Z,20.13
2022-12-14T14:37:40.483Z,20.02
2022-12-14T14:40:23.500Z,19.15
2022-12-14T14:42:59.272Z,20.25
2022-12-14T14:45:43.562Z,21.77
2022-12-14T14:48:26.888Z,19.98
2022-12-14T14:51:03.604Z,21.42
2022-12-14T14:53:36.449Z,21.63
2022-12-14T14:56:13.506Z,22.98
2022-12-14T14:58:42.373Z,24.98
2022-12-14T15:01:14.102Z,22.77
2022-12-14T15:03:53.706Z,24.42
2022-12-14T15:06:26.601Z,20.35
2022-12-14T15:09:00.127Z,23.10
2022-12-14T15:11:29.027Z,21.83
2022-12-14T15:14:02.335Z,22.52
2022-12-14T15:16:31.848Z,23.95
2022-12-14T15:19:17.897Z,22.88
2022-12-14T15:21:45.897Z,22.45
2022-12-14T15:24:14.648Z,21.27
2022-12-14T15:26:42.387Z,22.55
2022-12-14T15:29:15.559Z,24.45
2022-12-14T15:31:44.071Z,24.42
2022-12-14T15:34:16.503Z,23.98
2022-12-14T15:36:44.540Z,23.45
2022-12-14T15:39:32.771Z,24.05
2022-12-14T15:42:10.509Z,21.80
2022-12-14T15:44:40.223Z,22.83
2022-12-14T15:47:07.943Z,23.90
2022-12-14T15:49:35.314Z,22.70
2022-12-14T15:52:03.378Z,21.73
2022-12-14T15:54:31.093Z,21.90
2022-12-14T15:56:59.634Z,22.15
2022-12-14T15:59:32.351Z,23.23
2022-12-14T16:02:04.941Z,22.38
2022-12-14T16:04:34.847Z,22.30
2022-12-14T16:07:08.548Z,21.65
2022-12-14T16:09:58.022Z,23.15
2022-12-14T16:12:32.224Z,23.45
2022-12-14T16:15:00.624Z,23.23
2022-12-14T16:17:32.486Z,24.95
2022-12-14T16:20:03.873Z,24.63
2022-12-14T16:22:32.835Z,24.92
2022-12-14T16:25:09.364Z,25.80
2022-12-14T16:27:42.189Z,26.05
2022-12-14T16:30:30.071Z,24.90
2022-12-14T16:33:16.190Z,27.08
2022-12-14T16:35:44.721Z,23.92
2022-12-14T16:38:16.439Z,26.55
2022-12-14T16:40:53.207Z,26.67
2022-12-14T16:43:35.193Z,24.40
2022-12-14T16:46:05.672Z,24.80
2022-12-14T16:48:35.294Z,22.45
2022-12-14T16:51:38.387Z,23.23
2022-12-14T16:54:29.662Z,22.25
2022-12-14T16:56:58.818Z,25.15
2022-12-14T16:59:26.395Z,23.30
2022-12-14T17:01:54.128Z,23.80
2022-12-14T17:04:22.017Z,23.38
2022-12-14T17:06:49.438Z,23.30
2022-12-14T17:09:20.407Z,22.42
2022-12-14T17:11:48.586Z,23.20
2022-12-14T17:14:16.415Z,23.05
2022-12-14T17:16:45.069Z,22.83
2022-12-14T17:19:26.297Z,23.35
2022-12-14T17:21:53.927Z,23.48
2022-12-14T17:24:22.559Z,22.52
2022-12-14T17:26:50.926Z,23.48
2022-12-14T17:29:20.830Z,22.70
2022-12-14T17:31:50.069Z,22.90
2022-12-14T17:34:18.084Z,23.92
2022-12-14T17:36:45.948Z,22.45
2022-12-14T17:39:13.814Z,23.98
2022-12-14T17:41:42.451Z,21.85
2022-12-14T17:44:17.486Z,21.83
2022-12-14T17:46:45.366Z,22.50
2022-12-14T17:49:13.738Z,22.90
2022-12-14T17:51:42.277Z,22.83
2022-12-14T17:54:17.077Z,22.38
2022-12-14T17:56:44.838Z,23.08
2022-12-14T17:59:12.321Z,21.88
2022-12-14T18:01:40.966Z,21.52
2022-12-14T18:04:08.701Z,21.48
2022-12-14T18:06:36.313Z,23.50
2022-12-14T18:09:05.599Z,23.73
2022-12-14T18:11:33.029Z,21.27
2022-12-14T18:14:00.516Z,23.05
2022-12-14T18:16:29.251Z,23.88
2022-12-14T18:18:58.167Z,22.88
2022-12-14T18:21:28.193Z,22.05
2022-12-14T18:23:55.794Z,22.00
2022-12-14T18:26:24.105Z,22.65
2022-12-14T18:28:55.447Z,24.85
2022-12-14T18:31:34.361Z,23.33
2022-12-14T18:34:03.241Z,23.13
2022-12-14T18:36:30.898Z,23.88
2022-12-14T18:38:58.500Z,23.10
2022-12-14T18:41:29.547Z,23.25
2022-12-14T18:43:57.078Z,24.77
2022-12-14T18:46:25.129Z,25.15
2022-12-14T18:48:52.667Z,24.65
2022-12-14T18:51:25.988Z,22.95
2022-12-14T18:53:54.540Z,23.50
2022-12-14T18:56:23.325Z,25.30
2022-12-14T18:58:51.189Z,24.02
2022-12-14T19:01:20.787Z,24.05
2022-12-14T19:03:48.800Z,24.33
2022-12-14T19:06:43.623Z,23.42
2022-12-14T19:09:05.299Z,23.67
2022-12-14T19:11:33.911Z,22.48
2022-12-14T19:14:02.135Z,23.63
2022-12-14T19:16:30.520Z,23.15
2022-12-14T19:18:58.321Z,22.88
2022-12-14T19:21:26.320Z,22.02
2022-12-14T19:23:53.840Z,23.77
2022-12-14T19:26:21.289Z,24.75
2022-12-14T19:28:48.932Z,25.83
2022-12-14T19:31:16.366Z,25.95
2022-12-14T19:33:43.864Z,24.40
2022-12-14T19:36:11.488Z,22.70
2022-12-14T19:38:39.090Z,24.13
2022-12-14T19:41:08.379Z,23.98
2022-12-14T19:43:36.313Z,23.92
2022-12-14T19:46:07.776Z,22.92
2022-12-14T19:48:35.378Z,23.40
2022-12-14T19:51:12.996Z,23.75
2022-12-14T19:53:42.559Z,21.45
2022-12-14T19:56:10.173Z,21.83
2022-12-14T19:58:37.609Z,23.77
2022-12-14T20:01:09.114Z,23.95
2022-12-14T20:03:37.326Z,22.63
2022-12-14T20:06:05.821Z,24.38
2022-12-14T20:08:34.076Z,21.17
2022-12-14T20:11:05.713Z,23.63
2022-12-14T20:13:33.947Z,22.20
2022-12-14T20:16:02.187Z,21.63
2022-12-14T20:18:30.996Z,21.85
2022-12-14T20:21:08.996Z,22.13
2022-12-14T20:23:37.048Z,21.77
2022-12-14T20:26:06.063Z,20.65
2022-12-14T20:28:33.519Z,20.60
2022-12-14T20:31:01.436Z,22.30
2022-12-14T20:33:30.895Z,22.48
2022-12-14T20:35:58.740Z,21.35
2022-12-14T20:38:26.531Z,19.83
2022-12-14T20:40:54.101Z,21.75
2022-12-14T20:43:21.633Z,19.48
2022-12-14T20:45:49.074Z,20.90
2022-12-14T20:48:16.519Z,21.23
2022-12-14T20:50:44.349Z,21.25
2022-12-14T20:53:17.985Z,20.60
2022-12-14T20:55:45.410Z,21.73
2022-12-14T20:58:12.829Z,21.85
2022-12-14T21:00:40.324Z,22.40
2022-12-14T21:03:07.936Z,21.63
2022-12-14T21:05:39.779Z,21.58
2022-12-14T21:08:07.261Z,24.42
2022-12-14T21:10:35.035Z,20.55
2022-12-14T21:13:07.369Z,21.63
2022-12-14T21:15:35.617Z,22.08
2022-12-14T21:18:03.109Z,22.40
2022-12-14T21:20:33.459Z,21.67
2022-12-14T21:23:00.956Z,21.15
2022-12-14T21:25:28.343Z,21.42
2022-12-14T21:27:55.965Z,20.75
2022-12-14T21:30:23.454Z,20.13
2022-12-14T21:32:51.291Z,20.48
2022-12-14T21:35:18.858Z,21.08
2022-12-14T21:37:46.339Z,20.48
2022-12-14T21:40:33.725Z,20.27
2022-12-14T21:43:01.479Z,19.42
2022-12-14T21:45:28.971Z,18.88
2022-12-14T21:47:56.436Z,22.05
2022-12-14T21:50:23.931Z,20.27
2022-12-14T21:52:51.377Z,21.48
2022-12-14T21:55:18.854Z,20.92
2022-12-14T21:58:04.834Z,21.65
2022-12-14T22:00:32.308Z,20.27
2022-12-14T22:03:00.002Z,20.10
2022-12-14T22:05:27.571Z,20.77
2022-12-14T22:07:55.115Z,20.35
2022-12-14T22:10:25.057Z,20.85
2022-12-14T22:12:52.941Z,20.17
2022-12-14T22:15:20.586Z,20.52
2022-12-14T22:17:49.757Z,20.02
2022-12-14T22:20:17.123Z,19.73
2022-12-14T22:22:44.946Z,19.98
2022-12-14T22:25:12.314Z,19.17
2022-12-14T22:27:40.050Z,19.95
2022-12-14T22:30:08.691Z,19.20
2022-12-14T22:32:36.208Z,18.02
2022-12-14T22:35:03.709Z,18.38
2022-12-14T22:37:31.217Z,18.95
2022-12-14T22:39:58.729Z,19.35
2022-12-14T22:42:26.258Z,19.17
2022-12-14T22:44:54.604Z,18.15
2022-12-14T22:47:22.026Z,19.33
2022-12-14T22:49:49.464Z,19.52
2022-12-14T22:52:22.860Z,18.60
2022-12-14T22:54:52.062Z,18.90
2022-12-14T22:57:21.746Z,17.92
2022-12-14T22:59:51.686Z,19.27
2022-12-14T23:02:19.302Z,18.30
2022-12-14T23:04:47.101Z,18.65
2022-12-14T23:07:17.732Z,18.20
2022-12-14T23:10:04.131Z,19.08
2022-12-14T23:12:50.405Z,19.08
2022-12-14T23:15:36.669Z,18.33
2022-12-14T23:18:26.984Z,17.85
2022-12-14T23:21:13.517Z,17.40
2022-12-14T23:24:00.926Z,17.52
2022-12-14T23:26:46.858Z,17.70
2022-12-14T23:29:33.406Z,17.02
2022-12-14T23:32:19.410Z,17.48
2022-12-14T23:35:05.363Z,16.80
2022-12-14T23:37:51.544Z,17.05
2022-12-14T23:40:37.952Z,17.23
2022-12-14T23:43:35.044Z,17.33
2022-12-14T23:46:21.914Z,17.13
2022-12-14T23:49:15.104Z,17.08
2022-12-14T23:52:01.884Z,16.65
2022-12-14T23:54:47.779Z,18.38
2022-12-14T23:57:33.744Z,17.92
